Impacts METAR Board
IDs:

KTUL - Tulsa Intl Arpt, OK, US

Updated at: 2200 UTC 21 May 2022
Potential Impact None Slight Moderate High
Time 21/10Z 21/11Z 21/12Z 21/13Z 21/14Z 21/15Z 21/16Z 21/17Z 21/18Z 21/19Z 21/20Z 21/21Z 21/22Z
Temp59 58 57 57 57 57 57 57 58 60 60 60 62
Dewpt54 54 55 54 54 53 51 51 50 50 50 50 51
Altim29.83 29.81 29.89 29.91 29.93 29.96 29.98 30.00 30.02 30.03 30.04 30.06 30.07
VIS8 10 10 10 10 10 9 10 10 10 10 10 10
CIG43 60 7 9 9 14 14 16 21 25 25 25 32
CoverOVCOVCOVCOVCOVCOVCOVCOVCOVCOVCOVCOVCOVC
FltCatVFRVFRIFRIFRIFRMVFRMVFRMVFRMVFRMVFRMVFRMVFRVFR
WX-TSRA-TSRA---------DZ-DZ----------
WDir3406032010101036020201035035010
WSpd15 9 13 10 12 11 13 14 17 17 16 17 14
WGst22 20 -- -- -- -- 24 22 26 25 23 -- 18
R08/26
XWnd 14 4 10 10 12 11 13 13 16 17 16 17 14
XGst 21 10 -- -- -- -- 24 21 24 25 23 -- 18
HWnd -5 8 -8 2 2 2 0 5 6 3 -3 -3 3
HGst -7 17 -- -- -- -- 0 8 9 5 -4 -- 3
R18/36
XWnd -6 8 -9 1 1 1 -1 4 5 2 -4 -4 2
XGst -9 17 -- -- -- -- -1 6 8 3 -5 -- 2
HWnd -14 -5 -10 -10 -12 -11 -13 -13 -16 -17 -16 -17 -14
HGst -20 -11 -- -- -- -- -24 -21 -25 -25 -22 -- -18
Raw hourly METARs
KTUL 210953Z 34015G22KT 8SM -TSRA BKN043CB OVC050 15/12 A2983 RMK AO2 PK WND 01028/0919 LTG DSNT ALQDS SLP095 FRQ LTGICCCCG ALQDS TS ALQDS MOV NE P0004 T01500122 $
KTUL 211053Z 06009G20KT 10SM -TSRA FEW030CB OVC060 14/12 A2981 RMK AO2 PK WND 31034/1006 WSHFT 1007 LTG DSNT ALQDS SLP088 CONS LTGICCCCG ALQDS TS ALQDS MOV NE P0015 T01440122 $
KTUL 211153Z 32013KT 10SM BKN007 OVC012 14/13 A2989 RMK AO2 LTG DSNT N-E RAE29 TSE36 SLP115 TS MOV NE P0019 60048 70048 T01390128 10200 20139 53029
KTUL 211253Z 01010KT 10SM OVC009 14/12 A2991 RMK AO2 SLP124 T01390122
KTUL 211353Z 01012KT 10SM OVC009 14/12 A2993 RMK AO2 SLP131 T01390122
KTUL 211453Z 01011KT 340V040 10SM OVC014 14/12 A2996 RMK AO2 SLP140 T01390117 51024 $
KTUL 211553Z 36013G24KT 9SM -DZ OVC014 14/11 A2998 RMK AO2 DZB47 SLP148 P0000 T01390106 $
KTUL 211653Z 02014G22KT 10SM -DZ BKN016 OVC025 14/11 A3000 RMK AO2 PK WND 01028/1604 SLP155 P0000 T01390106
KTUL 211753Z 02017G26KT 10SM OVC021 14/10 A3002 RMK AO2 PK WND 01027/1719 DZE18 SLP160 P0000 60000 T01440100 10144 20139 51020
KTUL 211853Z 01017G25KT 10SM OVC025 16/10 A3003 RMK AO2 SLP166 T01560100
KTUL 211953Z 35016G23KT 10SM OVC025 16/10 A3004 RMK AO2 SLP169 T01560100
KTUL 212053Z 35017KT 10SM FEW020 OVC025 16/10 A3006 RMK AO2 SLP174 T01560100 51013
KTUL 212153Z 01014G18KT 10SM FEW020 OVC032 17/11 A3007 RMK AO2 SLP178 T01670106



Page loaded:  22:00 UTC  |   03:00 PM Pacific  |   04:00 PM Mountain  |   05:00 PM Central  |   06:00 PM Eastern

 

ADVISORIES

FORECASTS

FORECASTS

OBSERVATIONS

USER TOOLS

ABOUT US